Time;durP1;ratioP1;P1;durP2;ratioP2;P2;SDS_P1;SDS_P2;PMS_P1;PMS_P2;Temp;Humidity;BMP_temperature;BMP_pressure;BME280_temperature;BME280_humidity;BME280_pressure;Samples;Min_cycle;Max_cycle;Signal;HPM_P1;HPM_P2
2021/07/08 00:02:54;;;;;;;0.50;0.40;;;24.10;58.60;;;;;;6215176;28;20052;-69
2021/07/08 00:05:55;;;;;;;0.30;0.30;;;24.10;58.60;;;;;;6204173;28;20043;-69
2021/07/08 00:08:56;;;;;;;0.50;0.50;;;24.10;58.60;;;;;;6198183;28;20115;-69
2021/07/08 00:11:56;;;;;;;0.80;0.50;;;24.10;58.60;;;;;;6213340;28;20034;-69
2021/07/08 00:14:57;;;;;;;0.30;0.30;;;24.10;58.70;;;;;;6214999;28;20128;-69
2021/07/08 00:17:58;;;;;;;0.30;0.30;;;24.10;58.60;;;;;;6214784;28;20030;-69
2021/07/08 00:20:59;;;;;;;0.45;0.45;;;24.10;58.60;;;;;;6214663;28;20404;-69
2021/07/08 00:24:00;;;;;;;0.63;0.40;;;24.10;58.60;;;;;;6201036;28;20065;-69
2021/07/08 00:27:00;;;;;;;0.40;0.40;;;24.10;58.60;;;;;;6204550;28;20414;-69
2021/07/08 00:30:02;;;;;;;0.30;0.30;;;24.10;58.60;;;;;;6214845;28;20081;-69
2021/07/08 00:33:03;;;;;;;0.52;0.43;;;24.10;58.60;;;;;;6215506;28;20037;-69
2021/07/08 00:36:04;;;;;;;0.70;0.40;;;24.10;58.60;;;;;;6218947;28;20021;-69
2021/07/08 00:39:05;;;;;;;0.40;0.40;;;24.10;58.60;;;;;;6219038;28;20677;-69
2021/07/08 00:42:05;;;;;;;0.52;0.50;;;24.10;58.60;;;;;;6218850;28;20029;-69
2021/07/08 00:45:08;;;;;;;0.47;0.38;;;24.10;58.60;;;;;;6218785;28;20461;-69
2021/07/08 00:48:09;;;;;;;0.60;0.50;;;24.10;58.60;;;;;;6217366;28;20065;-69
2021/07/08 00:51:10;;;;;;;0.22;0.22;;;24.10;58.60;;;;;;6209838;28;20370;-69
2021/07/08 00:54:11;;;;;;;0.40;0.40;;;24.10;58.60;;;;;;6204140;28;20019;-69
2021/07/08 00:57:12;;;;;;;0.40;0.35;;;24.10;58.60;;;;;;6200527;28;20026;-69
2021/07/08 01:00:13;;;;;;;0.30;0.30;;;24.10;58.60;;;;;;6194624;28;20667;-69
2021/07/08 01:03:14;;;;;;;0.25;0.25;;;24.10;58.60;;;;;;6213420;28;20030;-69
2021/07/08 01:06:18;;;;;;;0.40;0.40;;;24.10;58.60;;;;;;6218151;28;20092;-69
2021/07/08 01:09:18;;;;;;;0.57;0.47;;;24.10;58.60;;;;;;6220696;28;20323;-69
2021/07/08 01:12:20;;;;;;;0.20;0.20;;;24.10;58.60;;;;;;6218068;28;20033;-69
2021/07/08 01:15:20;;;;;;;0.50;0.38;;;24.10;58.60;;;;;;6218234;28;20543;-69
2021/07/08 01:18:21;;;;;;;0.40;0.30;;;24.10;58.60;;;;;;6218035;28;20112;-69
2021/07/08 01:21:33;;;;;;;0.35;0.35;;;24.10;58.60;;;;;;6218034;28;20050;-69
2021/07/08 01:24:34;;;;;;;0.70;0.50;;;24.10;58.60;;;;;;6199137;28;20077;-69
2021/07/08 01:27:37;;;;;;;0.47;0.32;;;24.10;58.60;;;;;;6202172;28;20543;-68
2021/07/08 01:30:38;;;;;;;0.50;0.30;;;24.10;58.60;;;;;;6217863;28;20026;-69
2021/07/08 01:33:38;;;;;;;0.40;0.40;;;24.10;58.60;;;;;;6217815;28;20025;-69
2021/07/08 01:36:39;;;;;;;0.50;0.50;;;24.10;58.60;;;;;;6217219;28;20579;-69
2021/07/08 01:39:39;;;;;;;0.28;0.28;;;24.10;58.60;;;;;;6217634;28;20546;-69
2021/07/08 01:42:40;;;;;;;0.40;0.40;;;24.10;58.60;;;;;;6217313;28;20045;-69
2021/07/08 01:45:41;;;;;;;0.35;0.32;;;24.10;58.60;;;;;;6232393;28;20037;-69
2021/07/08 01:48:43;;;;;;;0.35;0.30;;;24.10;59.20;;;;;;6217398;28;20030;-69
2021/07/08 01:51:45;;;;;;;0.60;0.30;;;24.10;58.60;;;;;;6217260;28;20077;-69
2021/07/08 01:54:45;;;;;;;0.60;0.50;;;24.10;58.60;;;;;;6198251;28;20030;-69
2021/07/08 01:57:52;;;;;;;0.30;0.30;;;24.10;58.60;;;;;;6199194;28;20033;-69
2021/07/08 02:00:53;;;;;;;0.30;0.30;;;24.10;58.60;;;;;;6216870;28;20029;-69
2021/07/08 02:03:54;;;;;;;0.40;0.35;;;24.10;58.60;;;;;;6216846;28;20026;-70
2021/07/08 02:06:54;;;;;;;0.43;0.43;;;24.10;58.60;;;;;;6216949;28;20488;-69
2021/07/08 02:09:55;;;;;;;0.40;0.40;;;24.10;58.60;;;;;;6213047;28;20463;-69
2021/07/08 02:12:55;;;;;;;0.60;0.40;;;24.10;58.60;;;;;;6216578;28;20022;-69
2021/07/08 02:15:56;;;;;;;0.40;0.40;;;24.10;58.60;;;;;;6217269;28;20022;-69
2021/07/08 02:18:57;;;;;;;0.40;0.40;;;24.10;58.60;;;;;;6216435;28;20318;-69
2021/07/08 02:21:57;;;;;;;0.38;0.38;;;24.10;58.60;;;;;;6216532;28;20499;-69
2021/07/08 02:24:59;;;;;;;0.30;0.30;;;24.10;58.60;;;;;;6212631;28;20026;-69
2021/07/08 02:27:59;;;;;;;0.20;0.20;;;24.10;58.60;;;;;;6215784;28;20053;-69
2021/07/08 02:31:00;;;;;;;0.40;0.40;;;24.10;58.60;;;;;;6216344;28;20358;-69
2021/07/08 02:34:00;;;;;;;0.40;0.40;;;24.10;58.60;;;;;;6216398;28;20608;-69
2021/07/08 02:37:01;;;;;;;0.40;0.40;;;24.10;58.60;;;;;;6216144;28;20022;-68
2021/07/08 02:40:08;;;;;;;0.50;0.30;;;24.10;58.60;;;;;;6216255;28;20026;-69
2021/07/08 02:43:10;;;;;;;0.30;0.30;;;24.10;58.60;;;;;;6216382;28;20512;-69
2021/07/08 02:46:10;;;;;;;0.30;0.30;;;24.10;58.60;;;;;;6216381;28;20022;-68
2021/07/08 02:49:11;;;;;;;0.35;0.35;;;24.10;58.60;;;;;;6231041;28;20321;-69
2021/07/08 02:52:11;;;;;;;0.60;0.40;;;24.10;58.60;;;;;;6216130;28;20097;-68
2021/07/08 02:55:12;;;;;;;0.40;0.40;;;24.10;58.60;;;;;;6208783;28;20015;-69
2021/07/08 02:58:13;;;;;;;0.32;0.32;;;24.10;58.50;;;;;;6215659;28;20099;-69
2021/07/08 03:01:14;;;;;;;0.32;0.32;;;24.10;58.60;;;;;;6215694;28;20030;-68
2021/07/08 03:04:14;;;;;;;0.40;0.30;;;24.10;58.60;;;;;;6209448;28;20030;-68
2021/07/08 03:07:16;;;;;;;0.22;0.22;;;24.10;58.60;;;;;;6191735;28;20042;-69
2021/07/08 03:10:20;;;;;;;0.43;0.40;;;24.10;58.60;;;;;;6204095;28;20121;-68
2021/07/08 03:13:20;;;;;;;0.28;0.28;;;24.10;58.60;;;;;;6215652;28;20017;-68
2021/07/08 03:16:21;;;;;;;0.38;0.38;;;24.10;58.60;;;;;;6215835;28;20025;-68
2021/07/08 03:19:21;;;;;;;0.50;0.40;;;24.10;58.60;;;;;;6215604;28;20026;-69
2021/07/08 03:22:22;;;;;;;0.35;0.35;;;24.10;58.60;;;;;;6214841;28;20541;-68
2021/07/08 03:25:23;;;;;;;0.45;0.40;;;24.10;58.60;;;;;;6202450;28;20042;-68
2021/07/08 03:28:24;;;;;;;0.40;0.40;;;24.10;58.60;;;;;;6215457;28;20166;-68
2021/07/08 03:31:24;;;;;;;0.30;0.30;;;24.10;58.60;;;;;;6215173;28;20450;-68
2021/07/08 03:34:25;;;;;;;0.30;0.30;;;24.10;58.50;;;;;;6215744;28;20040;-68
2021/07/08 03:37:26;;;;;;;0.40;0.32;;;24.10;59.20;;;;;;6215944;28;20053;-69
2021/07/08 03:40:28;;;;;;;0.43;0.40;;;24.10;58.60;;;;;;6215390;28;20026;-69
2021/07/08 03:43:29;;;;;;;0.30;0.30;;;24.10;58.50;;;;;;6215678;28;20489;-69
2021/07/08 03:46:29;;;;;;;0.38;0.30;;;24.10;58.50;;;;;;6215470;28;20041;-69
2021/07/08 03:49:30;;;;;;;0.40;0.40;;;24.10;58.80;;;;;;6215170;28;20489;-69
2021/07/08 03:52:30;;;;;;;0.30;0.30;;;24.10;58.60;;;;;;6214614;28;20026;-69
2021/07/08 03:55:31;;;;;;;0.30;0.30;;;24.10;58.60;;;;;;6199152;28;20029;-69
2021/07/08 03:58:31;;;;;;;0.30;0.30;;;24.10;58.60;;;;;;6215594;28;20225;-69
2021/07/08 04:01:32;;;;;;;0.35;0.30;;;24.10;58.60;;;;;;6215343;28;20049;-69
2021/07/08 04:04:38;;;;;;;0.30;0.30;;;24.10;58.60;;;;;;6215205;28;20388;-69
2021/07/08 04:07:39;;;;;;;0.32;0.30;;;24.10;58.60;;;;;;6205498;28;20034;-69
2021/07/08 04:10:41;;;;;;;0.47;0.40;;;24.10;58.50;;;;;;6219991;28;20484;-69
2021/07/08 04:13:41;;;;;;;0.30;0.30;;;24.10;58.50;;;;;;6219761;28;20377;-69
2021/07/08 04:16:42;;;;;;;0.70;0.40;;;24.10;58.60;;;;;;6219660;28;20042;-69
2021/07/08 04:19:42;;;;;;;0.47;0.30;;;24.10;58.60;;;;;;6219739;28;20030;-69
2021/07/08 04:22:44;;;;;;;0.22;0.22;;;24.10;58.60;;;;;;6215992;28;20038;-69
2021/07/08 04:25:45;;;;;;;0.28;0.28;;;24.10;58.60;;;;;;6198019;28;20034;-69
2021/07/08 04:28:46;;;;;;;0.30;0.30;;;24.10;58.50;;;;;;6219129;28;20054;-69
2021/07/08 04:31:46;;;;;;;0.55;0.52;;;24.10;58.60;;;;;;6218168;28;20061;-69
2021/07/08 04:34:47;;;;;;;0.22;0.22;;;24.10;58.60;;;;;;6217000;28;20094;-69
2021/07/08 04:37:48;;;;;;;0.35;0.35;;;24.10;58.60;;;;;;6218174;28;20021;-69
2021/07/08 04:40:49;;;;;;;0.10;0.10;;;24.10;58.50;;;;;;6219168;28;20080;-69
2021/07/08 04:43:49;;;;;;;0.40;0.40;;;24.10;58.60;;;;;;6219400;28;20034;-68
2021/07/08 04:46:50;;;;;;;0.50;0.40;;;24.10;58.60;;;;;;6218933;28;20050;-69
2021/07/08 04:49:50;;;;;;;0.40;0.40;;;24.10;58.60;;;;;;6220113;28;20477;-68
2021/07/08 04:52:51;;;;;;;0.20;0.20;;;24.10;58.60;;;;;;6215371;28;20041;-69
2021/07/08 04:55:52;;;;;;;0.22;0.22;;;24.10;58.50;;;;;;6194563;28;20036;-68
2021/07/08 04:58:53;;;;;;;0.30;0.30;;;24.10;58.50;;;;;;6170419;28;20034;-69
2021/07/08 05:01:53;;;;;;;0.20;0.20;;;24.10;58.60;;;;;;6185889;28;20033;-68
2021/07/08 05:04:54;;;;;;;0.30;0.30;;;24.10;58.50;;;;;;6218995;28;20389;-68
2021/07/08 05:07:55;;;;;;;0.30;0.30;;;24.10;58.50;;;;;;6218986;28;20030;-69
2021/07/08 05:10:55;;;;;;;0.20;0.20;;;24.10;58.60;;;;;;6203120;28;20033;-68
2021/07/08 05:13:56;;;;;;;0.20;0.20;;;24.10;58.60;;;;;;6215350;28;20034;-69
2021/07/08 05:16:56;;;;;;;0.20;0.20;;;24.10;58.50;;;;;;6218078;28;20030;-69
2021/07/08 05:19:57;;;;;;;0.30;0.30;;;24.10;58.60;;;;;;6217452;28;20456;-69
2021/07/08 05:23:07;;;;;;;0.47;0.40;;;24.10;58.50;;;;;;6212394;28;20588;-69
2021/07/08 05:26:07;;;;;;;0.30;0.30;;;24.10;58.50;;;;;;6193758;28;20034;-69
2021/07/08 05:29:08;;;;;;;0.38;0.38;;;24.10;58.50;;;;;;6214205;28;20081;-69
2021/07/08 05:32:08;;;;;;;0.40;0.38;;;24.10;58.50;;;;;;6217691;28;20099;-69
2021/07/08 05:35:09;;;;;;;0.35;0.30;;;24.10;58.50;;;;;;6218284;28;20026;-69
2021/07/08 05:38:11;;;;;;;0.40;0.30;;;24.10;58.50;;;;;;6217484;28;20114;-68
2021/07/08 05:41:11;;;;;;;0.30;0.30;;;24.10;58.50;;;;;;6217933;28;20440;-68
2021/07/08 05:44:12;;;;;;;0.35;0.30;;;24.10;58.60;;;;;;6198066;28;20080;-69
2021/07/08 05:47:12;;;;;;;0.20;0.20;;;24.10;58.50;;;;;;6197258;28;20037;-68
2021/07/08 05:50:13;;;;;;;0.52;0.40;;;24.10;58.50;;;;;;6202235;28;20030;-69
2021/07/08 05:53:14;;;;;;;0.20;0.20;;;24.10;58.50;;;;;;6195408;28;20386;-69
2021/07/08 05:56:14;;;;;;;0.30;0.30;;;24.10;58.50;;;;;;6202315;28;20037;-69
2021/07/08 05:59:15;;;;;;;0.63;0.40;;;24.10;58.50;;;;;;6205868;28;20057;-69
2021/07/08 06:02:16;;;;;;;0.47;0.30;;;24.10;58.60;;;;;;6195764;28;20054;-69
2021/07/08 06:05:16;;;;;;;0.30;0.30;;;24.10;58.60;;;;;;6193440;28;20042;-68
2021/07/08 06:08:17;;;;;;;0.30;0.30;;;24.10;58.50;;;;;;6193473;28;20547;-69
2021/07/08 06:11:18;;;;;;;0.30;0.30;;;24.10;58.50;;;;;;6198473;28;20053;-68
2021/07/08 06:14:18;;;;;;;0.30;0.30;;;24.10;58.50;;;;;;6201569;28;20026;-69
2021/07/08 06:17:19;;;;;;;0.30;0.30;;;24.10;58.60;;;;;;6210029;28;20037;-69
2021/07/08 06:20:20;;;;;;;0.43;0.40;;;24.10;58.50;;;;;;6218197;28;20061;-69
2021/07/08 06:23:21;;;;;;;0.30;0.30;;;24.10;58.50;;;;;;6204622;28;20497;-69
2021/07/08 06:26:22;;;;;;;0.30;0.30;;;24.10;58.50;;;;;;6201087;28;20065;-69
2021/07/08 06:29:22;;;;;;;0.40;0.40;;;24.10;58.50;;;;;;6218187;28;20104;-69
2021/07/08 06:32:23;;;;;;;0.30;0.30;;;24.10;58.50;;;;;;6218044;28;20038;-69
2021/07/08 06:35:23;;;;;;;0.30;0.30;;;24.10;58.60;;;;;;6218220;28;20049;-69
2021/07/08 06:38:24;;;;;;;0.45;0.30;;;24.10;58.60;;;;;;6212653;28;20093;-69
2021/07/08 06:41:24;;;;;;;0.25;0.25;;;24.10;58.60;;;;;;6199379;28;20037;-69
2021/07/08 06:44:25;;;;;;;0.25;0.25;;;24.10;58.50;;;;;;6206013;28;20037;-69
2021/07/08 06:47:31;;;;;;;1.10;0.40;;;24.10;58.50;;;;;;6206670;28;20049;-68
2021/07/08 06:50:35;;;;;;;0.32;0.30;;;24.10;58.50;;;;;;6217907;28;20464;-69
2021/07/08 06:53:38;;;;;;;0.30;0.30;;;24.10;58.50;;;;;;6212378;28;20022;-68
2021/07/08 06:56:38;;;;;;;0.30;0.30;;;24.10;58.50;;;;;;6216913;28;20057;-69
2021/07/08 06:59:38;;;;;;;0.47;0.38;;;24.10;58.50;;;;;;6215345;28;20091;-69
2021/07/08 07:02:39;;;;;;;0.30;0.30;;;24.10;58.60;;;;;;6206431;28;20038;-69
2021/07/08 07:05:39;;;;;;;0.50;0.47;;;24.10;58.50;;;;;;6216299;28;20475;-69
2021/07/08 07:08:41;;;;;;;0.30;0.30;;;24.10;58.60;;;;;;6217464;28;20076;-69
2021/07/08 07:11:41;;;;;;;0.40;0.30;;;24.10;58.60;;;;;;6211781;28;20088;-69
2021/07/08 07:14:42;;;;;;;0.40;0.40;;;24.10;58.50;;;;;;6217663;28;20061;-69
2021/07/08 07:17:43;;;;;;;0.22;0.20;;;24.10;58.50;;;;;;6193921;28;20413;-69
2021/07/08 07:20:44;;;;;;;0.35;0.35;;;24.10;58.60;;;;;;6210527;28;20034;-69
2021/07/08 07:23:45;;;;;;;0.57;0.40;;;24.10;58.60;;;;;;6218813;28;20030;-69
2021/07/08 07:26:45;;;;;;;2.05;0.30;;;24.10;58.60;;;;;;6217908;28;20585;-69
2021/07/08 07:29:46;;;;;;;0.30;0.30;;;24.10;58.60;;;;;;6218351;28;20034;-69
2021/07/08 07:32:47;;;;;;;0.40;0.40;;;24.10;58.60;;;;;;6218221;28;20124;-69
2021/07/08 07:35:47;;;;;;;0.40;0.40;;;24.10;58.60;;;;;;6218172;28;20084;-69
2021/07/08 07:38:48;;;;;;;0.30;0.30;;;24.10;58.50;;;;;;6218460;28;20037;-69
2021/07/08 07:41:49;;;;;;;0.30;0.30;;;24.10;58.60;;;;;;6199730;28;20042;-69
2021/07/08 07:44:50;;;;;;;0.50;0.30;;;24.10;58.60;;;;;;6204658;28;20032;-69
2021/07/08 07:47:52;;;;;;;0.82;0.40;;;24.10;58.60;;;;;;6222843;28;20513;-69
2021/07/08 07:50:53;;;;;;;0.50;0.30;;;24.10;58.60;;;;;;6223308;28;20137;-69
2021/07/08 07:53:53;;;;;;;0.28;0.28;;;24.10;58.60;;;;;;6200334;28;20557;-68
2021/07/08 07:56:54;;;;;;;0.38;0.38;;;24.10;58.60;;;;;;6234977;28;20026;-69
2021/07/08 07:59:54;;;;;;;0.73;0.40;;;24.10;58.60;;;;;;6222768;28;20084;-68
2021/07/08 08:02:56;;;;;;;0.47;0.30;;;24.10;58.60;;;;;;6222865;28;20022;-69
2021/07/08 08:09:17;;;;;;;0.40;0.30;;;24.10;58.60;;;;;;6211656;28;20042;-69
2021/07/08 08:12:18;;;;;;;0.88;0.35;;;24.10;58.60;;;;;;6222810;28;20061;-69
2021/07/08 08:15:19;;;;;;;0.40;0.32;;;24.10;58.60;;;;;;6222237;28;20187;-69
2021/07/08 08:18:20;;;;;;;0.30;0.22;;;24.10;58.60;;;;;;6222678;28;20026;-69
2021/07/08 08:21:21;;;;;;;0.40;0.30;;;24.10;58.60;;;;;;6222268;28;20393;-69
2021/07/08 08:24:21;;;;;;;0.43;0.30;;;24.10;58.60;;;;;;6204235;28;20036;-69
2021/07/08 08:27:22;;;;;;;0.63;0.40;;;24.10;58.60;;;;;;6215914;28;20153;-69
2021/07/08 08:30:23;;;;;;;1.00;0.40;;;24.10;58.60;;;;;;6222235;28;20029;-69
2021/07/08 08:33:24;;;;;;;0.32;0.30;;;24.10;58.60;;;;;;6222564;28;20528;-69
2021/07/08 08:36:24;;;;;;;0.30;0.30;;;24.10;58.60;;;;;;6222149;28;20100;-69
2021/07/08 08:39:25;;;;;;;0.50;0.40;;;24.10;58.60;;;;;;6221803;28;20030;-69
2021/07/08 08:42:27;;;;;;;0.20;0.20;;;24.10;58.60;;;;;;6222088;28;20084;-69
2021/07/08 08:45:29;;;;;;;2.08;0.32;;;24.10;58.60;;;;;;6222458;28;20042;-69
2021/07/08 08:48:29;;;;;;;0.30;0.30;;;24.10;58.60;;;;;;6221663;28;20496;-69
2021/07/08 08:51:30;;;;;;;0.30;0.30;;;24.10;58.60;;;;;;6221953;28;20022;-69
2021/07/08 08:54:31;;;;;;;0.30;0.30;;;24.10;58.60;;;;;;6203524;28;20054;-69
2021/07/08 08:57:31;;;;;;;0.40;0.40;;;24.10;58.60;;;;;;6212377;28;20022;-70
2021/07/08 09:00:42;;;;;;;0.30;0.30;;;24.10;58.60;;;;;;6221538;28;20477;-69
2021/07/08 09:03:44;;;;;;;0.98;0.55;;;24.10;58.60;;;;;;6221113;28;20021;-68
2021/07/08 09:06:44;;;;;;;0.38;0.38;;;24.10;58.60;;;;;;6221063;28;20034;-69
2021/07/08 09:09:45;;;;;;;0.45;0.40;;;24.10;58.60;;;;;;6221838;28;20362;-69
2021/07/08 09:12:57;;;;;;;0.55;0.45;;;24.10;58.60;;;;;;6221060;28;20025;-69
2021/07/08 09:16:29;;;;;;;0.63;0.43;;;24.10;58.60;;;;;;6221264;28;20029;-69
2021/07/08 09:19:30;;;;;;;0.68;0.63;;;24.10;58.50;;;;;;6196373;28;20042;-69
2021/07/08 09:22:31;;;;;;;0.95;0.50;;;24.10;58.60;;;;;;6205084;28;20029;-69
2021/07/08 09:25:31;;;;;;;0.50;0.47;;;24.10;58.60;;;;;;6196734;28;20097;-69
2021/07/08 09:28:37;;;;;;;0.65;0.43;;;24.10;58.60;;;;;;6214285;28;20049;-69
2021/07/08 09:31:38;;;;;;;1.45;0.43;;;24.10;58.60;;;;;;6220480;28;20037;-69
2021/07/08 09:34:40;;;;;;;0.95;0.50;;;24.10;58.60;;;;;;6220739;28;20501;-69
2021/07/08 09:37:41;;;;;;;1.13;0.60;;;24.10;58.60;;;;;;6220598;28;20022;-69
2021/07/08 09:40:42;;;;;;;0.40;0.40;;;24.10;58.60;;;;;;6220632;28;20045;-69
2021/07/08 09:43:44;;;;;;;0.52;0.50;;;24.10;58.50;;;;;;6220150;28;20527;-69
2021/07/08 09:46:45;;;;;;;0.55;0.40;;;24.10;58.60;;;;;;6220830;28;20030;-69
2021/07/08 09:49:46;;;;;;;0.30;0.30;;;24.10;58.50;;;;;;6220198;28;20029;-69
2021/07/08 09:53:08;;;;;;;0.73;0.60;;;24.10;58.50;;;;;;6217060;28;20432;-68
2021/07/08 09:59:09;;;;;;;0.63;0.30;;;24.10;58.60;;;;;;6214537;28;20029;-69
2021/07/08 10:02:10;;;;;;;0.40;0.40;;;24.10;58.60;;;;;;6235177;28;20038;-69
2021/07/08 10:05:10;;;;;;;0.70;0.32;;;24.10;58.60;;;;;;6219709;28;20108;-69
2021/07/08 10:08:11;;;;;;;0.30;0.30;;;24.10;58.60;;;;;;6219535;28;20026;-69
2021/07/08 10:11:14;;;;;;;0.40;0.40;;;24.10;58.60;;;;;;6219540;28;20023;-69
2021/07/08 10:14:17;;;;;;;0.47;0.47;;;24.10;58.60;;;;;;6219977;28;20022;-69
2021/07/08 10:17:20;;;;;;;0.50;0.45;;;24.10;58.60;;;;;;6220231;28;20116;-69
2021/07/08 10:20:22;;;;;;;0.63;0.47;;;24.10;58.60;;;;;;6219226;28;20207;-69
2021/07/08 10:23:25;;;;;;;1.65;0.30;;;24.10;58.60;;;;;;6216489;28;20441;-69
2021/07/08 10:26:26;;;;;;;0.45;0.45;;;24.10;58.60;;;;;;6219161;28;20026;-69
2021/07/08 10:29:26;;;;;;;0.75;0.50;;;24.10;58.60;;;;;;6219110;28;20076;-69
2021/07/08 10:32:27;;;;;;;0.30;0.30;;;24.10;58.60;;;;;;6219102;28;20112;-69
2021/07/08 10:35:39;;;;;;;0.43;0.40;;;24.10;58.60;;;;;;6219237;28;20018;-69
2021/07/08 10:38:41;;;;;;;0.88;0.60;;;24.10;58.60;;;;;;6218984;28;20034;-69
2021/07/08 10:41:49;;;;;;;0.57;0.30;;;24.10;58.60;;;;;;6219432;28;20084;-69
2021/07/08 10:44:50;;;;;;;0.47;0.45;;;24.10;58.60;;;;;;6218997;28;20026;-69
2021/07/08 10:47:52;;;;;;;0.50;0.50;;;24.10;58.60;;;;;;6218800;28;20033;-69
2021/07/08 10:50:54;;;;;;;0.47;0.20;;;24.10;58.60;;;;;;6219433;28;20064;-68
2021/07/08 10:53:55;;;;;;;0.73;0.40;;;24.10;58.60;;;;;;6213179;28;20033;-70
2021/07/08 10:56:57;;;;;;;0.55;0.40;;;24.10;58.60;;;;;;6218815;28;20100;-69
2021/07/08 10:59:58;;;;;;;0.22;0.20;;;24.10;58.60;;;;;;6218687;28;20018;-69
2021/07/08 11:02:58;;;;;;;0.30;0.30;;;24.10;58.60;;;;;;6218964;28;20511;-69
2021/07/08 11:06:09;;;;;;;0.35;0.32;;;24.10;58.60;;;;;;6218546;28;20034;-69
2021/07/08 11:09:18;;;;;;;0.30;0.30;;;24.10;58.60;;;;;;6218771;28;20025;-69
2021/07/08 11:12:28;;;;;;;0.30;0.30;;;24.10;58.60;;;;;;6218786;28;20057;-69
2021/07/08 11:15:49;;;;;;;0.35;0.35;;;24.10;58.60;;;;;;6218129;28;20022;-69
2021/07/08 11:19:01;;;;;;;0.80;0.47;;;24.10;58.60;;;;;;6217717;28;20113;-69
2021/07/08 11:22:13;;;;;;;0.40;0.30;;;24.10;58.60;;;;;;6218901;28;20096;-69
2021/07/08 11:25:16;;;;;;;1.27;0.50;;;24.10;58.70;;;;;;6205638;28;20213;-69
2021/07/08 11:28:28;;;;;;;0.40;0.40;;;24.10;58.60;;;;;;6218066;28;20054;-69
2021/07/08 11:31:35;;;;;;;0.40;0.40;;;24.10;58.60;;;;;;6217976;28;20030;-69
2021/07/08 11:34:36;;;;;;;0.80;0.30;;;24.10;58.60;;;;;;6218098;28;20382;-69
2021/07/08 11:37:43;;;;;;;0.30;0.30;;;24.10;58.60;;;;;;6218422;28;20053;-69
2021/07/08 11:40:47;;;;;;;0.43;0.40;;;24.10;58.60;;;;;;6217930;28;20033;-69
2021/07/08 11:43:51;;;;;;;0.35;0.32;;;24.10;58.70;;;;;;6218605;28;20204;-70
2021/07/08 11:46:54;;;;;;;0.23;0.23;;;24.10;58.60;;;;;;6218064;28;20037;-69
2021/07/08 11:49:55;;;;;;;1.17;0.50;;;24.10;58.60;;;;;;6218187;28;20116;-69
2021/07/08 11:53:09;;;;;;;0.50;0.50;;;24.10;58.60;;;;;;6213911;28;20033;-69
2021/07/08 11:56:10;;;;;;;0.40;0.32;;;24.10;58.60;;;;;;6208159;28;20112;-69
2021/07/08 11:59:11;;;;;;;0.32;0.32;;;24.10;58.60;;;;;;6218636;28;20132;-68
2021/07/08 12:02:12;;;;;;;0.40;0.38;;;24.10;58.60;;;;;;6218031;28;20022;-69
2021/07/08 12:05:17;;;;;;;0.55;0.47;;;24.10;58.60;;;;;;6217983;28;20375;-69
2021/07/08 12:08:27;;;;;;;;;;;24.10;58.60;;;;;;6218110;28;20092;-69
2021/07/08 12:11:35;;;;;;;0.40;0.40;;;24.10;58.60;;;;;;6217806;28;19913;-69
2021/07/08 12:14:36;;;;;;;0.60;0.38;;;24.10;58.60;;;;;;6217902;28;20061;-69
2021/07/08 12:17:37;;;;;;;0.70;0.40;;;24.10;58.60;;;;;;6201336;28;20030;-69
2021/07/08 12:20:49;;;;;;;0.32;0.30;;;24.10;58.60;;;;;;6199414;28;20492;-69
2021/07/08 12:23:51;;;;;;;0.50;0.43;;;24.10;58.60;;;;;;6205427;28;20399;-69
2021/07/08 12:26:58;;;;;;;0.40;0.40;;;24.10;58.60;;;;;;6208393;28;20085;-69
2021/07/08 12:29:58;;;;;;;0.77;0.40;;;24.10;58.60;;;;;;6221899;28;20033;-69
2021/07/08 12:33:13;;;;;;;0.30;0.30;;;24.10;58.60;;;;;;6222602;28;20028;-69
2021/07/08 12:36:15;;;;;;;0.55;0.40;;;24.10;58.60;;;;;;6222015;28;20560;-68
2021/07/08 12:39:17;;;;;;;0.30;0.30;;;24.10;58.60;;;;;;6223040;28;20366;-68
2021/07/08 12:42:20;;;;;;;0.30;0.30;;;24.10;58.60;;;;;;6222157;28;20018;-69
2021/07/08 12:45:24;;;;;;;0.82;0.60;;;24.10;58.60;;;;;;6221564;28;20416;-69
2021/07/08 12:48:24;;;;;;;0.35;0.35;;;24.10;58.70;;;;;;6221727;28;20448;-69
2021/07/08 12:51:26;;;;;;;0.50;0.40;;;24.10;58.70;;;;;;6221761;28;20083;-69
2021/07/08 12:54:30;;;;;;;0.30;0.30;;;24.10;58.60;;;;;;6205813;28;20034;-69
2021/07/08 12:57:30;;;;;;;0.40;0.30;;;24.10;58.60;;;;;;6213607;28;20029;-69
2021/07/08 13:00:35;;;;;;;0.30;0.30;;;24.10;58.60;;;;;;6221243;28;20026;-69
2021/07/08 13:03:39;;;;;;;;;;;24.10;58.60;;;;;;6177023;28;20033;-69
2021/07/08 13:06:39;;;;;;;0.55;0.35;;;24.10;58.60;;;;;;6213345;28;19921;-69
2021/07/08 13:09:40;;;;;;;0.30;0.30;;;24.10;58.60;;;;;;6197059;28;20385;-69
2021/07/08 13:12:40;;;;;;;0.45;0.35;;;24.10;58.60;;;;;;6210503;28;20102;-69
2021/07/08 13:15:45;;;;;;;0.63;0.40;;;24.10;58.70;;;;;;6221825;28;20116;-69
2021/07/08 13:18:47;;;;;;;0.47;0.40;;;24.10;58.60;;;;;;6220742;28;20477;-69
2021/07/08 13:21:47;;;;;;;0.50;0.40;;;24.10;58.60;;;;;;6221217;28;20038;-69
2021/07/08 13:24:51;;;;;;;0.52;0.43;;;24.10;58.60;;;;;;6200431;28;20026;-69
2021/07/08 13:27:55;;;;;;;0.40;0.40;;;24.10;58.60;;;;;;6208979;28;20049;-69
2021/07/08 13:30:58;;;;;;;0.40;0.40;;;24.10;58.60;;;;;;6221214;28;20084;-69
2021/07/08 13:34:00;;;;;;;0.47;0.40;;;24.10;58.60;;;;;;6220399;28;20048;-69
2021/07/08 13:37:00;;;;;;;0.30;0.30;;;24.10;58.60;;;;;;6220495;28;20049;-69
2021/07/08 13:40:09;;;;;;;0.40;0.40;;;24.10;58.60;;;;;;6220138;28;20425;-69
2021/07/08 13:43:13;;;;;;;0.38;0.38;;;24.10;58.60;;;;;;6220254;28;20109;-69
2021/07/08 13:46:16;;;;;;;0.20;0.20;;;24.10;58.60;;;;;;6220633;28;20052;-68
2021/07/08 13:49:20;;;;;;;0.40;0.35;;;24.10;58.60;;;;;;6220434;28;20034;-69
2021/07/08 13:52:22;;;;;;;0.40;0.40;;;24.10;58.60;;;;;;6199741;28;20080;-69
2021/07/08 13:55:22;;;;;;;0.73;0.40;;;24.10;58.60;;;;;;6192258;28;20030;-69
2021/07/08 13:58:23;;;;;;;0.45;0.40;;;24.10;58.60;;;;;;6193874;28;20038;-69
2021/07/08 14:01:24;;;;;;;0.20;0.20;;;24.10;58.60;;;;;;6194273;28;20033;-69
2021/07/08 14:04:25;;;;;;;1.75;0.40;;;24.10;58.60;;;;;;6198445;28;20081;-69
2021/07/08 14:07:26;;;;;;;0.40;0.40;;;24.10;58.60;;;;;;6197132;28;20449;-69
2021/07/08 14:10:26;;;;;;;7.30;4.05;;;24.10;58.60;;;;;;6199297;28;20085;-69
2021/07/08 14:13:27;;;;;;;3.97;2.20;;;24.00;59.70;;;;;;6206672;28;20421;-68
2021/07/08 14:16:28;;;;;;;6.72;2.20;;;24.00;61.10;;;;;;6217769;28;20116;-69
2021/07/08 14:19:28;;;;;;;6.85;2.22;;;24.00;61.80;;;;;;6213336;28;20022;-69
2021/07/08 14:22:29;;;;;;;12.00;2.72;;;24.00;63.20;;;;;;6202956;28;20081;-69
2021/07/08 14:25:29;;;;;;;12.60;2.80;;;24.00;62.40;;;;;;6205179;28;20339;-69
2021/07/08 14:28:30;;;;;;;5.85;3.38;;;24.00;62.70;;;;;;6199382;28;20065;-69
2021/07/08 14:31:30;;;;;;;7.22;3.20;;;24.00;62.90;;;;;;6217488;28;20428;-69
2021/07/08 14:34:31;;;;;;;8.82;2.75;;;24.00;62.70;;;;;;6212566;28;20064;-69
2021/07/08 14:37:31;;;;;;;10.10;2.47;;;24.00;63.40;;;;;;6216720;28;20106;-69
2021/07/08 14:40:34;;;;;;;10.20;2.95;;;23.90;62.80;;;;;;6213721;28;20389;-69
2021/07/08 14:43:44;;;;;;;6.47;3.30;;;23.90;64.00;;;;;;6200107;28;20137;-68
2021/07/08 14:46:44;;;;;;;6.72;2.17;;;23.90;64.30;;;;;;6207406;28;20092;-69
2021/07/08 14:49:46;;;;;;;8.20;3.10;;;23.90;64.30;;;;;;6204461;28;20029;-69
2021/07/08 14:52:47;;;;;;;7.85;2.40;;;23.90;64.80;;;;;;6213910;28;20499;-69
2021/07/08 14:55:47;;;;;;;6.70;2.50;;;23.90;65.10;;;;;;6203836;28;20133;-69
2021/07/08 14:58:48;;;;;;;3.78;1.92;;;23.90;64.50;;;;;;6194791;28;20018;-69
2021/07/08 15:01:48;;;;;;;10.65;2.58;;;23.90;64.60;;;;;;6215699;28;20072;-69
2021/07/08 15:04:49;;;;;;;4.00;2.20;;;23.90;64.80;;;;;;6209363;28;20421;-69
2021/07/08 15:07:50;;;;;;;8.15;2.28;;;23.90;65.50;;;;;;6192188;28;20038;-68
2021/07/08 15:10:53;;;;;;;5.55;2.20;;;23.90;65.80;;;;;;6202419;28;20035;-68
2021/07/08 15:13:54;;;;;;;5.72;2.20;;;23.90;65.40;;;;;;6195196;28;20397;-68
2021/07/08 15:16:55;;;;;;;7.10;2.83;;;24.00;65.00;;;;;;6197375;28;20077;-68
2021/07/08 15:19:55;;;;;;;6.95;3.28;;;23.90;65.30;;;;;;6199312;28;20076;-68
2021/07/08 15:22:56;;;;;;;5.53;2.80;;;23.90;65.10;;;;;;6225725;28;20031;-68
2021/07/08 15:25:56;;;;;;;5.10;2.55;;;23.90;64.90;;;;;;6207920;28;20033;-68
2021/07/08 15:28:57;;;;;;;5.03;2.67;;;24.00;64.70;;;;;;6215776;28;20097;-68
2021/07/08 15:31:57;;;;;;;7.97;2.45;;;23.90;64.70;;;;;;6201428;28;20089;-68
2021/07/08 15:34:58;;;;;;;4.68;2.38;;;23.90;64.40;;;;;;6197943;28;20034;-68
2021/07/08 15:37:59;;;;;;;7.72;2.63;;;23.90;64.70;;;;;;6213330;28;20061;-68
2021/07/08 15:40:59;;;;;;;6.47;2.50;;;23.90;64.80;;;;;;6205953;28;20033;-68
2021/07/08 15:44:01;;;;;;;5.43;2.40;;;23.90;64.80;;;;;;6216602;28;20026;-68
2021/07/08 15:47:01;;;;;;;4.60;2.30;;;23.90;64.90;;;;;;6205983;28;20042;-68
2021/07/08 15:50:04;;;;;;;4.22;2.13;;;23.90;64.10;;;;;;6211670;28;20064;-68
2021/07/08 15:53:05;;;;;;;7.78;2.58;;;23.90;64.20;;;;;;6210779;28;20021;-68
2021/07/08 15:56:06;;;;;;;4.57;2.30;;;24.00;64.80;;;;;;6204845;28;20026;-68